메인 페이지
METAR-TAF:

METAR-TAF

공항 :

지부티, 지부티

위도: 11-33N, 경도: 043-10E, 고도: 49m

현재 날씨관측

예보는 42분 전, 22:00시(UTC)에 발표되었습니다.
무풍
온도 31°C
습도 75%
기압 1004 hPa
시정: 8000m
고도 13300ft 상공 구름 조금
연무

METAR: HDAM 182200Z 00000KT 8000 HZ FEW133 31/26 Q1004

시각: 01:42 (22:42 UTC)

예보

예보는 5 시간 42분 전, 17:00시(UTC)에 발표되었습니다.
예보 대상 시간: 18일 18시부터 19일 18시까지 (UTC)
여러 방향의 바람 3kt
시정 10km 이상
1500m 미만 상공 구름 및 적란운 없음
전환 중
19일 00시부터 19일 06시까지 (UTC)
kt
전환 중
19일 06시부터 19일 12시까지 (UTC)
10kt
시정: 8000m
연무
전환 중
19일 12시부터 19일 15시까지 (UTC)
10kt
시정 10km 이상
고도 2300ft 상공 구름 조금

TAF: HDAM 181700Z 1818/1918 VRB03KT CAVOK BECMG 1900/1906 00000KT BECMG 1906/1912 26010KT 8000 HZ NSC BECMG 1912/1915 08010KT 9999 FEW023

4,000개 이상의 공항 관측 자료 및 예보 (METAR 및 TAF 보고).

지도상에서 검색 가능한 기상관측소가 노란 점과 빨간 점으로 표시되어 있습니다.

기상관측소 명을 보려면 표시 위로 마우스를 이동하세요.

날씨 관측과 예보를 보려면 클릭하세요.

지도 변경 : 확대하려면 엑스 표시가 있는 녹색 버튼, 축소하려면 빼기 표시가 있는 녹색 버튼, 다음 페이지의 지도를 보려면 녹색 화살표를 클릭하세요.


METAR-TAF: